sensor_id;sensor_type;location;lat;lon;timestamp;temperature;humidity
3037;DHT22;1528;52.550;13.408;2024-01-06T00:00:33;3.20;44.30
3037;DHT22;1528;52.550;13.408;2024-01-06T00:03:19;3.20;44.50
3037;DHT22;1528;52.550;13.408;2024-01-06T00:06:05;3.30;44.40
3037;DHT22;1528;52.550;13.408;2024-01-06T00:08:51;3.30;44.00
3037;DHT22;1528;52.550;13.408;2024-01-06T00:11:38;3.30;44.00
3037;DHT22;1528;52.550;13.408;2024-01-06T00:14:24;3.10;44.20
3037;DHT22;1528;52.550;13.408;2024-01-06T00:17:10;3.10;44.50
3037;DHT22;1528;52.550;13.408;2024-01-06T00:19:56;3.20;44.50
3037;DHT22;1528;52.550;13.408;2024-01-06T00:22:41;3.20;43.90
3037;DHT22;1528;52.550;13.408;2024-01-06T00:25:28;3.00;44.30
3037;DHT22;1528;52.550;13.408;2024-01-06T00:28:14;2.90;44.40
3037;DHT22;1528;52.550;13.408;2024-01-06T00:30:59;2.80;44.70
3037;DHT22;1528;52.550;13.408;2024-01-06T00:33:46;2.80;44.60
3037;DHT22;1528;52.550;13.408;2024-01-06T00:36:32;2.80;44.90
3037;DHT22;1528;52.550;13.408;2024-01-06T00:39:17;2.80;44.90
3037;DHT22;1528;52.550;13.408;2024-01-06T00:42:03;2.70;44.90
3037;DHT22;1528;52.550;13.408;2024-01-06T00:44:49;2.60;44.90
3037;DHT22;1528;52.550;13.408;2024-01-06T00:47:35;2.60;45.10
3037;DHT22;1528;52.550;13.408;2024-01-06T00:50:22;2.70;45.20
3037;DHT22;1528;52.550;13.408;2024-01-06T00:53:07;2.60;45.00
3037;DHT22;1528;52.550;13.408;2024-01-06T00:55:53;2.60;45.20
3037;DHT22;1528;52.550;13.408;2024-01-06T00:58:38;2.60;45.10
3037;DHT22;1528;52.550;13.408;2024-01-06T01:01:24;2.60;45.30
3037;DHT22;1528;52.550;13.408;2024-01-06T01:04:10;2.60;45.20
3037;DHT22;1528;52.550;13.408;2024-01-06T01:06:57;2.60;45.60
3037;DHT22;1528;52.550;13.408;2024-01-06T01:09:42;2.70;45.40
3037;DHT22;1528;52.550;13.408;2024-01-06T01:12:28;2.70;45.00
3037;DHT22;1528;52.550;13.408;2024-01-06T01:15:13;2.70;44.90
3037;DHT22;1528;52.550;13.408;2024-01-06T01:17:59;2.60;44.70
3037;DHT22;1528;52.550;13.408;2024-01-06T01:20:45;2.60;44.90
3037;DHT22;1528;52.550;13.408;2024-01-06T01:23:31;2.60;45.20
3037;DHT22;1528;52.550;13.408;2024-01-06T01:26:17;2.70;45.10
3037;DHT22;1528;52.550;13.408;2024-01-06T01:29:02;2.60;44.80
3037;DHT22;1528;52.550;13.408;2024-01-06T01:31:48;2.60;45.20
3037;DHT22;1528;52.550;13.408;2024-01-06T01:34:33;2.70;45.20
3037;DHT22;1528;52.550;13.408;2024-01-06T01:37:19;2.80;44.90
3037;DHT22;1528;52.550;13.408;2024-01-06T01:40:07;2.80;44.40
3037;DHT22;1528;52.550;13.408;2024-01-06T01:42:53;2.70;44.50
3037;DHT22;1528;52.550;13.408;2024-01-06T01:45:39;2.80;44.70
3037;DHT22;1528;52.550;13.408;2024-01-06T01:48:25;2.70;44.30
3037;DHT22;1528;52.550;13.408;2024-01-06T01:51:10;2.60;44.40
3037;DHT22;1528;52.550;13.408;2024-01-06T01:53:57;2.60;44.70
3037;DHT22;1528;52.550;13.408;2024-01-06T01:56:44;2.50;44.70
3037;DHT22;1528;52.550;13.408;2024-01-06T01:59:29;2.50;45.60
3037;DHT22;1528;52.550;13.408;2024-01-06T02:02:15;2.50;44.80
3037;DHT22;1528;52.550;13.408;2024-01-06T02:05:01;2.40;44.80
3037;DHT22;1528;52.550;13.408;2024-01-06T02:07:47;2.30;45.20
3037;DHT22;1528;52.550;13.408;2024-01-06T02:10:34;2.30;45.70
3037;DHT22;1528;52.550;13.408;2024-01-06T02:13:22;2.30;45.70
3037;DHT22;1528;52.550;13.408;2024-01-06T02:16:07;2.30;45.50
3037;DHT22;1528;52.550;13.408;2024-01-06T02:18:53;2.30;46.30
3037;DHT22;1528;52.550;13.408;2024-01-06T02:21:41;2.30;45.80
3037;DHT22;1528;52.550;13.408;2024-01-06T02:24:29;2.30;46.00
3037;DHT22;1528;52.550;13.408;2024-01-06T02:27:14;2.30;45.90
3037;DHT22;1528;52.550;13.408;2024-01-06T02:30:00;2.40;45.60
3037;DHT22;1528;52.550;13.408;2024-01-06T02:32:45;2.50;45.40
3037;DHT22;1528;52.550;13.408;2024-01-06T02:35:31;2.30;45.30
3037;DHT22;1528;52.550;13.408;2024-01-06T02:38:17;2.30;45.30
3037;DHT22;1528;52.550;13.408;2024-01-06T02:41:04;2.30;45.50
3037;DHT22;1528;52.550;13.408;2024-01-06T02:43:49;2.40;45.50
3037;DHT22;1528;52.550;13.408;2024-01-06T02:46:35;2.50;45.10
3037;DHT22;1528;52.550;13.408;2024-01-06T02:49:20;2.40;44.90
3037;DHT22;1528;52.550;13.408;2024-01-06T02:52:06;2.40;45.20
3037;DHT22;1528;52.550;13.408;2024-01-06T02:54:51;2.50;45.30
3037;DHT22;1528;52.550;13.408;2024-01-06T02:57:38;2.60;45.10
3037;DHT22;1528;52.550;13.408;2024-01-06T03:00:25;2.80;44.10
3037;DHT22;1528;52.550;13.408;2024-01-06T03:03:10;2.80;43.90
3037;DHT22;1528;52.550;13.408;2024-01-06T03:05:56;2.80;44.00
3037;DHT22;1528;52.550;13.408;2024-01-06T03:08:42;2.80;43.60
3037;DHT22;1528;52.550;13.408;2024-01-06T03:11:27;2.80;43.80
3037;DHT22;1528;52.550;13.408;2024-01-06T03:14:14;2.30;43.30
3037;DHT22;1528;52.550;13.408;2024-01-06T03:17:00;2.60;44.10
3037;DHT22;1528;52.550;13.408;2024-01-06T03:19:46;2.60;44.30
3037;DHT22;1528;52.550;13.408;2024-01-06T03:22:32;2.70;44.00
3037;DHT22;1528;52.550;13.408;2024-01-06T03:25:18;2.80;43.80
3037;DHT22;1528;52.550;13.408;2024-01-06T03:28:04;2.80;43.60
3037;DHT22;1528;52.550;13.408;2024-01-06T03:30:51;2.70;43.60
3037;DHT22;1528;52.550;13.408;2024-01-06T03:33:36;2.60;44.00
3037;DHT22;1528;52.550;13.408;2024-01-06T03:36:22;2.50;44.20
3037;DHT22;1528;52.550;13.408;2024-01-06T03:39:08;2.40;44.50
3037;DHT22;1528;52.550;13.408;2024-01-06T03:41:54;2.40;44.60
3037;DHT22;1528;52.550;13.408;2024-01-06T03:44:40;2.30;44.90
3037;DHT22;1528;52.550;13.408;2024-01-06T03:47:27;2.30;45.10
3037;DHT22;1528;52.550;13.408;2024-01-06T03:50:12;2.40;45.00
3037;DHT22;1528;52.550;13.408;2024-01-06T03:52:58;2.50;45.00
3037;DHT22;1528;52.550;13.408;2024-01-06T03:55:44;2.40;44.90
3037;DHT22;1528;52.550;13.408;2024-01-06T03:58:29;2.40;45.10
3037;DHT22;1528;52.550;13.408;2024-01-06T04:01:15;2.50;45.10
3037;DHT22;1528;52.550;13.408;2024-01-06T04:04:02;2.60;45.00
3037;DHT22;1528;52.550;13.408;2024-01-06T04:06:47;2.50;44.80
3037;DHT22;1528;52.550;13.408;2024-01-06T04:09:33;2.60;44.80
3037;DHT22;1528;52.550;13.408;2024-01-06T04:12:19;2.60;44.90
3037;DHT22;1528;52.550;13.408;2024-01-06T04:15:05;2.70;44.80
3037;DHT22;1528;52.550;13.408;2024-01-06T04:17:50;2.70;44.60
3037;DHT22;1528;52.550;13.408;2024-01-06T04:20:37;2.70;44.40
3037;DHT22;1528;52.550;13.408;2024-01-06T04:23:23;2.60;44.50
3037;DHT22;1528;52.550;13.408;2024-01-06T04:26:09;2.60;45.20
3037;DHT22;1528;52.550;13.408;2024-01-06T04:28:54;2.60;44.90
3037;DHT22;1528;52.550;13.408;2024-01-06T04:31:40;2.70;44.50
3037;DHT22;1528;52.550;13.408;2024-01-06T04:34:26;3.00;44.40
3037;DHT22;1528;52.550;13.408;2024-01-06T04:37:13;2.70;44.30
3037;DHT22;1528;52.550;13.408;2024-01-06T04:39:59;2.70;44.30
3037;DHT22;1528;52.550;13.408;2024-01-06T04:42:44;2.50;44.60
3037;DHT22;1528;52.550;13.408;2024-01-06T04:45:30;2.50;44.80
3037;DHT22;1528;52.550;13.408;2024-01-06T04:48:16;2.50;45.00
3037;DHT22;1528;52.550;13.408;2024-01-06T04:51:02;2.50;45.00
3037;DHT22;1528;52.550;13.408;2024-01-06T04:53:49;2.50;45.00
3037;DHT22;1528;52.550;13.408;2024-01-06T04:56:35;2.50;45.00
3037;DHT22;1528;52.550;13.408;2024-01-06T04:59:21;2.50;45.30
3037;DHT22;1528;52.550;13.408;2024-01-06T05:02:06;2.40;45.20
3037;DHT22;1528;52.550;13.408;2024-01-06T05:04:52;2.30;45.20
3037;DHT22;1528;52.550;13.408;2024-01-06T05:07:38;2.30;45.60
3037;DHT22;1528;52.550;13.408;2024-01-06T05:10:25;2.50;45.80
3037;DHT22;1528;52.550;13.408;2024-01-06T05:13:10;2.40;45.90
3037;DHT22;1528;52.550;13.408;2024-01-06T05:15:56;2.40;45.60
3037;DHT22;1528;52.550;13.408;2024-01-06T05:18:42;2.40;45.60
3037;DHT22;1528;52.550;13.408;2024-01-06T05:21:27;2.40;45.70
3037;DHT22;1528;52.550;13.408;2024-01-06T05:24:13;2.50;45.60
3037;DHT22;1528;52.550;13.408;2024-01-06T05:27:00;2.50;45.50
3037;DHT22;1528;52.550;13.408;2024-01-06T05:29:46;2.60;45.30
3037;DHT22;1528;52.550;13.408;2024-01-06T05:32:33;2.60;45.20
3037;DHT22;1528;52.550;13.408;2024-01-06T05:35:19;2.50;45.10
3037;DHT22;1528;52.550;13.408;2024-01-06T05:38:04;2.30;45.50
3037;DHT22;1528;52.550;13.408;2024-01-06T05:40:50;2.20;45.70
3037;DHT22;1528;52.550;13.408;2024-01-06T05:43:37;2.20;46.10
3037;DHT22;1528;52.550;13.408;2024-01-06T05:46:23;2.20;46.20
3037;DHT22;1528;52.550;13.408;2024-01-06T05:49:09;2.10;46.80
3037;DHT22;1528;52.550;13.408;2024-01-06T05:51:55;2.00;46.40
3037;DHT22;1528;52.550;13.408;2024-01-06T05:54:41;2.00;46.70
3037;DHT22;1528;52.550;13.408;2024-01-06T05:57:27;2.00;46.90
3037;DHT22;1528;52.550;13.408;2024-01-06T06:00:15;2.00;47.30
3037;DHT22;1528;52.550;13.408;2024-01-06T06:03:01;1.90;46.90
3037;DHT22;1528;52.550;13.408;2024-01-06T06:05:46;1.80;47.10
3037;DHT22;1528;52.550;13.408;2024-01-06T06:08:32;1.80;47.30
3037;DHT22;1528;52.550;13.408;2024-01-06T06:11:18;1.80;47.50
3037;DHT22;1528;52.550;13.408;2024-01-06T06:14:03;1.80;48.10
3037;DHT22;1528;52.550;13.408;2024-01-06T06:16:50;1.90;47.90
3037;DHT22;1528;52.550;13.408;2024-01-06T06:19:36;1.80;48.00
3037;DHT22;1528;52.550;13.408;2024-01-06T06:22:21;1.70;47.90
3037;DHT22;1528;52.550;13.408;2024-01-06T06:25:07;1.70;47.70
3037;DHT22;1528;52.550;13.408;2024-01-06T06:27:53;1.70;47.70
3037;DHT22;1528;52.550;13.408;2024-01-06T06:30:39;1.70;47.80
3037;DHT22;1528;52.550;13.408;2024-01-06T06:33:25;1.80;47.50
3037;DHT22;1528;52.550;13.408;2024-01-06T06:36:11;1.70;47.40
3037;DHT22;1528;52.550;13.408;2024-01-06T06:38:56;1.70;47.40
3037;DHT22;1528;52.550;13.408;2024-01-06T06:41:43;1.80;47.60
3037;DHT22;1528;52.550;13.408;2024-01-06T06:44:29;1.80;47.50
3037;DHT22;1528;52.550;13.408;2024-01-06T06:47:14;1.90;47.50
3037;DHT22;1528;52.550;13.408;2024-01-06T06:50:01;1.90;47.00
3037;DHT22;1528;52.550;13.408;2024-01-06T06:52:48;1.80;46.80
3037;DHT22;1528;52.550;13.408;2024-01-06T06:55:34;1.90;47.30
3037;DHT22;1528;52.550;13.408;2024-01-06T06:58:21;1.80;46.80
3037;DHT22;1528;52.550;13.408;2024-01-06T07:01:06;1.80;47.10
3037;DHT22;1528;52.550;13.408;2024-01-06T07:03:52;1.80;47.00
3037;DHT22;1528;52.550;13.408;2024-01-06T07:06:39;1.80;46.90
3037;DHT22;1528;52.550;13.408;2024-01-06T07:09:24;1.70;47.20
3037;DHT22;1528;52.550;13.408;2024-01-06T07:12:10;1.70;47.20
3037;DHT22;1528;52.550;13.408;2024-01-06T07:14:56;1.70;47.30
3037;DHT22;1528;52.550;13.408;2024-01-06T07:17:42;1.60;47.30
3037;DHT22;1528;52.550;13.408;2024-01-06T07:20:30;1.60;47.60
3037;DHT22;1528;52.550;13.408;2024-01-06T07:23:17;1.60;47.40
3037;DHT22;1528;52.550;13.408;2024-01-06T07:26:03;1.50;47.70
3037;DHT22;1528;52.550;13.408;2024-01-06T07:28:48;1.50;48.00
3037;DHT22;1528;52.550;13.408;2024-01-06T07:31:34;1.50;48.00
3037;DHT22;1528;52.550;13.408;2024-01-06T07:34:20;1.50;48.00
3037;DHT22;1528;52.550;13.408;2024-01-06T07:37:05;1.60;48.10
3037;DHT22;1528;52.550;13.408;2024-01-06T07:39:52;1.70;47.70
3037;DHT22;1528;52.550;13.408;2024-01-06T07:42:38;1.60;47.50
3037;DHT22;1528;52.550;13.408;2024-01-06T07:45:23;1.70;47.80
3037;DHT22;1528;52.550;13.408;2024-01-06T07:48:09;1.40;47.80
3037;DHT22;1528;52.550;13.408;2024-01-06T07:50:54;1.30;48.30
3037;DHT22;1528;52.550;13.408;2024-01-06T07:53:40;1.40;49.40
3037;DHT22;1528;52.550;13.408;2024-01-06T07:56:28;1.70;49.30
3037;DHT22;1528;52.550;13.408;2024-01-06T07:59:14;1.60;48.10
3037;DHT22;1528;52.550;13.408;2024-01-06T08:01:59;1.80;48.10
3037;DHT22;1528;52.550;13.408;2024-01-06T08:04:45;1.90;47.80
3037;DHT22;1528;52.550;13.408;2024-01-06T08:07:30;1.90;46.90
3037;DHT22;1528;52.550;13.408;2024-01-06T08:10:16;1.90;46.70
3037;DHT22;1528;52.550;13.408;2024-01-06T08:13:03;2.10;46.70
3037;DHT22;1528;52.550;13.408;2024-01-06T08:15:49;2.10;46.00
3037;DHT22;1528;52.550;13.408;2024-01-06T08:18:35;2.00;45.80
3037;DHT22;1528;52.550;13.408;2024-01-06T08:21:20;2.00;45.70
3037;DHT22;1528;52.550;13.408;2024-01-06T08:24:06;1.90;45.90
3037;DHT22;1528;52.550;13.408;2024-01-06T08:26:52;2.00;46.20
3037;DHT22;1528;52.550;13.408;2024-01-06T08:29:39;1.90;45.70
3037;DHT22;1528;52.550;13.408;2024-01-06T08:32:24;2.00;46.00
3037;DHT22;1528;52.550;13.408;2024-01-06T08:35:10;1.80;46.20
3037;DHT22;1528;52.550;13.408;2024-01-06T08:37:55;1.70;46.40
3037;DHT22;1528;52.550;13.408;2024-01-06T08:40:41;1.70;46.20
3037;DHT22;1528;52.550;13.408;2024-01-06T08:43:28;1.70;46.30
3037;DHT22;1528;52.550;13.408;2024-01-06T08:46:15;1.70;46.20
3037;DHT22;1528;52.550;13.408;2024-01-06T08:49:01;1.70;46.10
3037;DHT22;1528;52.550;13.408;2024-01-06T08:51:47;1.70;47.00
3037;DHT22;1528;52.550;13.408;2024-01-06T08:54:32;1.70;45.90
3037;DHT22;1528;52.550;13.408;2024-01-06T08:57:19;1.70;46.00
3037;DHT22;1528;52.550;13.408;2024-01-06T09:00:08;1.80;46.30
3037;DHT22;1528;52.550;13.408;2024-01-06T09:02:56;1.80;45.50
3037;DHT22;1528;52.550;13.408;2024-01-06T09:05:42;1.80;46.20
3037;DHT22;1528;52.550;13.408;2024-01-06T09:08:27;1.80;45.40
3037;DHT22;1528;52.550;13.408;2024-01-06T09:11:12;1.70;45.20
3037;DHT22;1528;52.550;13.408;2024-01-06T09:13:58;1.70;45.30
3037;DHT22;1528;52.550;13.408;2024-01-06T09:16:45;1.70;45.40
3037;DHT22;1528;52.550;13.408;2024-01-06T09:19:32;1.70;45.10
3037;DHT22;1528;52.550;13.408;2024-01-06T09:22:18;1.70;45.50
3037;DHT22;1528;52.550;13.408;2024-01-06T09:25:04;1.70;45.20
3037;DHT22;1528;52.550;13.408;2024-01-06T09:27:50;1.50;45.30
3037;DHT22;1528;52.550;13.408;2024-01-06T09:30:37;1.50;45.00
3037;DHT22;1528;52.550;13.408;2024-01-06T09:33:23;1.50;45.40
3037;DHT22;1528;52.550;13.408;2024-01-06T09:36:10;1.50;45.10
3037;DHT22;1528;52.550;13.408;2024-01-06T09:38:58;1.40;45.20
3037;DHT22;1528;52.550;13.408;2024-01-06T09:41:43;1.40;45.20
3037;DHT22;1528;52.550;13.408;2024-01-06T09:44:30;1.40;45.20
3037;DHT22;1528;52.550;13.408;2024-01-06T09:47:18;1.40;45.30
3037;DHT22;1528;52.550;13.408;2024-01-06T09:50:06;1.40;44.90
3037;DHT22;1528;52.550;13.408;2024-01-06T09:52:56;1.40;45.20
3037;DHT22;1528;52.550;13.408;2024-01-06T09:55:49;1.30;44.80
3037;DHT22;1528;52.550;13.408;2024-01-06T09:58:36;1.30;45.20
3037;DHT22;1528;52.550;13.408;2024-01-06T10:01:24;1.40;45.00
3037;DHT22;1528;52.550;13.408;2024-01-06T10:04:09;1.40;45.00
3037;DHT22;1528;52.550;13.408;2024-01-06T10:06:55;1.40;44.90
3037;DHT22;1528;52.550;13.408;2024-01-06T10:09:42;1.40;44.90
3037;DHT22;1528;52.550;13.408;2024-01-06T10:12:27;1.50;44.70
3037;DHT22;1528;52.550;13.408;2024-01-06T10:15:13;1.60;44.70
3037;DHT22;1528;52.550;13.408;2024-01-06T10:17:59;1.50;44.10
3037;DHT22;1528;52.550;13.408;2024-01-06T10:20:44;1.50;44.20
3037;DHT22;1528;52.550;13.408;2024-01-06T10:23:31;1.60;44.50
3037;DHT22;1528;52.550;13.408;2024-01-06T10:26:18;1.40;44.40
3037;DHT22;1528;52.550;13.408;2024-01-06T10:29:04;1.60;44.50
3037;DHT22;1528;52.550;13.408;2024-01-06T10:31:50;1.40;44.40
3037;DHT22;1528;52.550;13.408;2024-01-06T10:34:36;1.40;44.30
3037;DHT22;1528;52.550;13.408;2024-01-06T10:37:23;1.40;44.30
3037;DHT22;1528;52.550;13.408;2024-01-06T10:40:11;1.30;44.20
3037;DHT22;1528;52.550;13.408;2024-01-06T10:42:59;1.30;44.40
3037;DHT22;1528;52.550;13.408;2024-01-06T10:45:45;1.30;44.40
3037;DHT22;1528;52.550;13.408;2024-01-06T10:48:32;1.40;44.70
3037;DHT22;1528;52.550;13.408;2024-01-06T10:51:19;1.40;44.40
3037;DHT22;1528;52.550;13.408;2024-01-06T10:54:07;1.50;45.20
3037;DHT22;1528;52.550;13.408;2024-01-06T10:56:55;1.40;43.60
3037;DHT22;1528;52.550;13.408;2024-01-06T10:59:44;1.30;44.10
3037;DHT22;1528;52.550;13.408;2024-01-06T11:02:31;1.30;44.30
3037;DHT22;1528;52.550;13.408;2024-01-06T11:05:17;1.40;44.10
3037;DHT22;1528;52.550;13.408;2024-01-06T11:08:03;1.40;43.70
3037;DHT22;1528;52.550;13.408;2024-01-06T11:10:49;1.30;43.70
3037;DHT22;1528;52.550;13.408;2024-01-06T11:13:35;1.50;44.60
3037;DHT22;1528;52.550;13.408;2024-01-06T11:16:37;1.30;43.70
3037;DHT22;1528;52.550;13.408;2024-01-06T11:19:42;1.20;43.90
3037;DHT22;1528;52.550;13.408;2024-01-06T11:22:28;1.20;44.00
3037;DHT22;1528;52.550;13.408;2024-01-06T11:25:16;1.50;43.90
3037;DHT22;1528;52.550;13.408;2024-01-06T11:28:08;1.50;44.10
3037;DHT22;1528;52.550;13.408;2024-01-06T11:31:05;1.40;44.20
3037;DHT22;1528;52.550;13.408;2024-01-06T11:33:54;1.40;43.50
3037;DHT22;1528;52.550;13.408;2024-01-06T11:36:40;1.50;43.80
3037;DHT22;1528;52.550;13.408;2024-01-06T11:39:35;1.50;43.30
3037;DHT22;1528;52.550;13.408;2024-01-06T11:42:32;1.70;43.20
3037;DHT22;1528;52.550;13.408;2024-01-06T11:45:17;1.50;43.20
3037;DHT22;1528;52.550;13.408;2024-01-06T11:48:04;1.60;43.10
3037;DHT22;1528;52.550;13.408;2024-01-06T11:50:52;1.60;43.00
3037;DHT22;1528;52.550;13.408;2024-01-06T11:53:37;1.50;42.60
3037;DHT22;1528;52.550;13.408;2024-01-06T11:56:26;1.40;42.50
3037;DHT22;1528;52.550;13.408;2024-01-06T11:59:11;1.30;42.60
3037;DHT22;1528;52.550;13.408;2024-01-06T12:01:57;1.30;42.50
3037;DHT22;1528;52.550;13.408;2024-01-06T12:04:43;1.30;42.40
3037;DHT22;1528;52.550;13.408;2024-01-06T12:07:35;1.30;42.50
3037;DHT22;1528;52.550;13.408;2024-01-06T12:10:20;1.30;42.40
3037;DHT22;1528;52.550;13.408;2024-01-06T12:13:07;1.30;42.60
3037;DHT22;1528;52.550;13.408;2024-01-06T12:15:53;1.30;42.70
3037;DHT22;1528;52.550;13.408;2024-01-06T12:18:40;1.60;42.60
3037;DHT22;1528;52.550;13.408;2024-01-06T12:21:26;1.70;42.10
3037;DHT22;1528;52.550;13.408;2024-01-06T12:24:22;1.60;41.90
3037;DHT22;1528;52.550;13.408;2024-01-06T12:27:09;1.40;41.70
3037;DHT22;1528;52.550;13.408;2024-01-06T12:29:55;1.30;41.50
3037;DHT22;1528;52.550;13.408;2024-01-06T12:32:41;1.30;42.40
3037;DHT22;1528;52.550;13.408;2024-01-06T12:35:27;1.20;42.00
3037;DHT22;1528;52.550;13.408;2024-01-06T12:38:13;1.20;42.30
3037;DHT22;1528;52.550;13.408;2024-01-06T12:41:00;1.30;42.40
3037;DHT22;1528;52.550;13.408;2024-01-06T12:43:47;1.40;42.10
3037;DHT22;1528;52.550;13.408;2024-01-06T12:46:33;1.30;42.10
3037;DHT22;1528;52.550;13.408;2024-01-06T12:49:19;1.30;41.70
3037;DHT22;1528;52.550;13.408;2024-01-06T12:52:04;1.30;41.60
3037;DHT22;1528;52.550;13.408;2024-01-06T12:54:50;1.20;41.60
3037;DHT22;1528;52.550;13.408;2024-01-06T12:57:38;1.20;41.70
3037;DHT22;1528;52.550;13.408;2024-01-06T13:00:23;1.10;41.70
3037;DHT22;1528;52.550;13.408;2024-01-06T13:03:09;1.20;44.10
3037;DHT22;1528;52.550;13.408;2024-01-06T13:05:54;1.40;43.00
3037;DHT22;1528;52.550;13.408;2024-01-06T13:08:40;1.30;41.70
3037;DHT22;1528;52.550;13.408;2024-01-06T13:11:26;1.30;41.70
3037;DHT22;1528;52.550;13.408;2024-01-06T13:14:13;1.20;41.80
3037;DHT22;1528;52.550;13.408;2024-01-06T13:16:59;1.40;42.00
3037;DHT22;1528;52.550;13.408;2024-01-06T13:19:44;1.20;42.00
3037;DHT22;1528;52.550;13.408;2024-01-06T13:22:30;1.20;41.70
3037;DHT22;1528;52.550;13.408;2024-01-06T13:25:16;1.30;41.80
3037;DHT22;1528;52.550;13.408;2024-01-06T13:28:04;1.40;41.50
3037;DHT22;1528;52.550;13.408;2024-01-06T13:30:51;1.40;41.60
3037;DHT22;1528;52.550;13.408;2024-01-06T13:33:37;1.50;41.40
3037;DHT22;1528;52.550;13.408;2024-01-06T13:36:23;1.80;41.70
3037;DHT22;1528;52.550;13.408;2024-01-06T13:39:09;1.50;40.60
3037;DHT22;1528;52.550;13.408;2024-01-06T13:42:00;1.60;41.10
3037;DHT22;1528;52.550;13.408;2024-01-06T13:44:47;1.30;41.00
3037;DHT22;1528;52.550;13.408;2024-01-06T13:47:34;1.40;41.30
3037;DHT22;1528;52.550;13.408;2024-01-06T13:50:20;1.50;41.20
3037;DHT22;1528;52.550;13.408;2024-01-06T13:53:05;1.40;41.10
3037;DHT22;1528;52.550;13.408;2024-01-06T13:55:51;1.40;41.20
3037;DHT22;1528;52.550;13.408;2024-01-06T13:58:37;1.40;40.70
3037;DHT22;1528;52.550;13.408;2024-01-06T14:01:22;1.30;40.80
3037;DHT22;1528;52.550;13.408;2024-01-06T14:04:10;1.40;40.80
3037;DHT22;1528;52.550;13.408;2024-01-06T14:06:57;1.40;40.40
3037;DHT22;1528;52.550;13.408;2024-01-06T14:09:43;1.30;40.50
3037;DHT22;1528;52.550;13.408;2024-01-06T14:12:28;1.30;40.50
3037;DHT22;1528;52.550;13.408;2024-01-06T14:15:14;1.50;40.60
3037;DHT22;1528;52.550;13.408;2024-01-06T14:17:59;1.40;40.20
3037;DHT22;1528;52.550;13.408;2024-01-06T14:20:46;1.30;39.90
3037;DHT22;1528;52.550;13.408;2024-01-06T14:23:32;1.30;40.20
3037;DHT22;1528;52.550;13.408;2024-01-06T14:26:18;1.20;39.80
3037;DHT22;1528;52.550;13.408;2024-01-06T14:29:04;1.30;39.90
3037;DHT22;1528;52.550;13.408;2024-01-06T14:31:50;1.30;40.00
3037;DHT22;1528;52.550;13.408;2024-01-06T14:34:36;1.30;40.00
3037;DHT22;1528;52.550;13.408;2024-01-06T14:37:23;1.20;39.80
3037;DHT22;1528;52.550;13.408;2024-01-06T14:40:09;1.20;39.90
3037;DHT22;1528;52.550;13.408;2024-01-06T14:42:56;1.30;40.00
3037;DHT22;1528;52.550;13.408;2024-01-06T14:45:42;1.30;39.90
3037;DHT22;1528;52.550;13.408;2024-01-06T14:48:28;1.40;39.70
3037;DHT22;1528;52.550;13.408;2024-01-06T14:51:13;1.40;39.70
3037;DHT22;1528;52.550;13.408;2024-01-06T14:54:00;1.30;40.50
3037;DHT22;1528;52.550;13.408;2024-01-06T14:56:46;1.30;39.50
3037;DHT22;1528;52.550;13.408;2024-01-06T14:59:32;1.30;39.40
3037;DHT22;1528;52.550;13.408;2024-01-06T15:02:20;1.30;39.40
3037;DHT22;1528;52.550;13.408;2024-01-06T15:05:07;1.30;39.20
3037;DHT22;1528;52.550;13.408;2024-01-06T15:07:53;1.30;39.30
3037;DHT22;1528;52.550;13.408;2024-01-06T15:10:40;1.40;39.40
3037;DHT22;1528;52.550;13.408;2024-01-06T15:13:26;1.40;39.20
3037;DHT22;1528;52.550;13.408;2024-01-06T15:16:12;1.40;39.10
3037;DHT22;1528;52.550;13.408;2024-01-06T15:18:57;1.40;39.10
3037;DHT22;1528;52.550;13.408;2024-01-06T15:21:43;1.40;39.00
3037;DHT22;1528;52.550;13.408;2024-01-06T15:24:31;1.30;38.60
3037;DHT22;1528;52.550;13.408;2024-01-06T15:27:18;1.20;39.00
3037;DHT22;1528;52.550;13.408;2024-01-06T15:30:05;1.20;39.00
3037;DHT22;1528;52.550;13.408;2024-01-06T15:32:52;1.10;39.10
3037;DHT22;1528;52.550;13.408;2024-01-06T15:35:38;1.20;39.30
3037;DHT22;1528;52.550;13.408;2024-01-06T15:38:24;1.20;39.50
3037;DHT22;1528;52.550;13.408;2024-01-06T15:41:11;1.10;39.40
3037;DHT22;1528;52.550;13.408;2024-01-06T15:43:58;1.00;39.60
3037;DHT22;1528;52.550;13.408;2024-01-06T15:46:43;1.00;39.60
3037;DHT22;1528;52.550;13.408;2024-01-06T15:49:29;1.00;39.60
3037;DHT22;1528;52.550;13.408;2024-01-06T15:52:15;1.00;40.20
3037;DHT22;1528;52.550;13.408;2024-01-06T15:55:06;0.90;40.00
3037;DHT22;1528;52.550;13.408;2024-01-06T15:57:51;0.90;40.10
3037;DHT22;1528;52.550;13.408;2024-01-06T16:00:38;1.00;39.90
3037;DHT22;1528;52.550;13.408;2024-01-06T16:03:23;1.00;40.00
3037;DHT22;1528;52.550;13.408;2024-01-06T16:06:09;1.00;39.50
3037;DHT22;1528;52.550;13.408;2024-01-06T16:08:54;1.10;39.90
3037;DHT22;1528;52.550;13.408;2024-01-06T16:11:40;1.10;39.70
3037;DHT22;1528;52.550;13.408;2024-01-06T16:14:26;1.10;39.30
3037;DHT22;1528;52.550;13.408;2024-01-06T16:17:13;1.00;39.20
3037;DHT22;1528;52.550;13.408;2024-01-06T16:19:58;1.00;38.90
3037;DHT22;1528;52.550;13.408;2024-01-06T16:22:44;1.00;39.10
3037;DHT22;1528;52.550;13.408;2024-01-06T16:25:30;0.90;39.20
3037;DHT22;1528;52.550;13.408;2024-01-06T16:28:17;1.00;39.20
3037;DHT22;1528;52.550;13.408;2024-01-06T16:31:03;1.00;39.50
3037;DHT22;1528;52.550;13.408;2024-01-06T16:33:50;1.00;38.70
3037;DHT22;1528;52.550;13.408;2024-01-06T16:36:35;1.20;38.60
3037;DHT22;1528;52.550;13.408;2024-01-06T16:39:21;1.00;38.10
3037;DHT22;1528;52.550;13.408;2024-01-06T16:42:07;1.00;38.50
3037;DHT22;1528;52.550;13.408;2024-01-06T16:44:52;0.90;38.40
3037;DHT22;1528;52.550;13.408;2024-01-06T16:47:38;1.10;38.10
3037;DHT22;1528;52.550;13.408;2024-01-06T16:50:25;1.10;38.10
3037;DHT22;1528;52.550;13.408;2024-01-06T16:53:11;1.00;37.50
3037;DHT22;1528;52.550;13.408;2024-01-06T16:55:57;1.00;37.50
3037;DHT22;1528;52.550;13.408;2024-01-06T16:58:42;1.00;37.70
3037;DHT22;1528;52.550;13.408;2024-01-06T17:01:28;1.00;37.50
3037;DHT22;1528;52.550;13.408;2024-01-06T17:04:14;0.90;37.90
3037;DHT22;1528;52.550;13.408;2024-01-06T17:07:01;0.90;39.00
3037;DHT22;1528;52.550;13.408;2024-01-06T17:09:48;1.20;39.00
3037;DHT22;1528;52.550;13.408;2024-01-06T17:12:35;0.90;38.50
3037;DHT22;1528;52.550;13.408;2024-01-06T17:15:20;0.80;37.70
3037;DHT22;1528;52.550;13.408;2024-01-06T17:18:08;1.10;38.50
3037;DHT22;1528;52.550;13.408;2024-01-06T17:20:54;0.90;37.80
3037;DHT22;1528;52.550;13.408;2024-01-06T17:23:41;0.90;37.90
3037;DHT22;1528;52.550;13.408;2024-01-06T17:26:27;0.90;37.30
3037;DHT22;1528;52.550;13.408;2024-01-06T17:29:13;0.80;37.60
3037;DHT22;1528;52.550;13.408;2024-01-06T17:31:59;0.80;37.60
3037;DHT22;1528;52.550;13.408;2024-01-06T17:34:44;0.90;37.60
3037;DHT22;1528;52.550;13.408;2024-01-06T17:37:30;0.90;37.50
3037;DHT22;1528;52.550;13.408;2024-01-06T17:40:17;0.80;37.20
3037;DHT22;1528;52.550;13.408;2024-01-06T17:43:03;0.80;37.50
3037;DHT22;1528;52.550;13.408;2024-01-06T17:45:51;0.90;37.60
3037;DHT22;1528;52.550;13.408;2024-01-06T17:48:37;0.90;37.60
3037;DHT22;1528;52.550;13.408;2024-01-06T17:51:22;0.90;37.50
3037;DHT22;1528;52.550;13.408;2024-01-06T17:54:08;1.00;37.40
3037;DHT22;1528;52.550;13.408;2024-01-06T17:56:56;0.90;37.40
3037;DHT22;1528;52.550;13.408;2024-01-06T17:59:41;0.80;37.30
3037;DHT22;1528;52.550;13.408;2024-01-06T18:02:27;0.90;37.50
3037;DHT22;1528;52.550;13.408;2024-01-06T18:05:13;0.80;37.20